Líbí se Vám tento web? Budeme velmi rádi, pokud přidáte hodnocení +1

Seznam meteostanic a jejich METAR

Vyhledat místa podle abecedy:
A B C D E F G H I J K L M N O P Q R S T U V W X Y Z

Filtrovat:

ID stanice:
a/nebo
Název místa (fulltext):
 
Místo (ID)Naposledy načteno 
Liberec (Liberec) 17.01.2018 21:00 UTC Zobrazit data
Místo: Liberec
Teplota: 0 °C (pocitová: -8.4 °C)
Vítr: 4 m/s z(e) 300°
Počasí: sněží
Dohlednost: 900 m
Zákl. oblačnosti: 8/8 120 m
Vlhkost: 93%
Luká (Luka) 17.01.2018 21:00 UTC Zobrazit data
Místo: Luká
Teplota: 0 °C (pocitová: -9.7 °C)
Vítr: 6 m/s z(e) 300°
Počasí: skoro zataženo
Dohlednost: 20 km
Zákl. oblačnosti: 1/8 750 m;5/8 1380 m
Vlhkost: 75%
Lysá Hora (Lysa Hora) 17.01.2018 10:00 UTC Zobrazit data
Místo: Lysá Hora
Teplota: -5 °C (pocitová: -19.9 °C)
Vítr: 12 m/s z(e) 290°
Počasí: skoro zataženo
Dohlednost: 45 km
Zákl. oblačnosti: 1/8 30 m;5/8 2700 m
Vlhkost: 100%
L'viv (UKLL) 13.12.2012 15:00 UTC  
La Palma (GCLA) 17.01.2018 21:00 UTC Zobrazit METAR
GCLA 172100Z 01014KT 350V050 9999 FEW045 19/13 Q1024
La Paz (SLLP) 17.01.2018 15:00 UTC Zobrazit METAR
SLLP 171500Z 15007KT 9999 SCT017 BKN200 12/05 Q1038
Laayoune (GMML) 17.01.2018 21:00 UTC Zobrazit METAR
GMML 172100Z 03011KT 8000 SCT020 SCT100 16/13 Q1020 NOSIG
Larnaca (LCLK) 17.01.2018 21:00 UTC Zobrazit METAR
LCLK 172100Z 22012KT 9999 FEW060 14/10 Q1011 NOSIG
Leipzig-Halle (EDDP) 17.01.2018 20:50 UTC Zobrazit METAR
EDDP 172050Z 26019KT 9999 BKN035 01/M00 Q1003 TEMPO 25015G25KT
Libreville (FOOL) 17.01.2018 20:00 UTC Zobrazit METAR
FOOL 172000Z 24008KT 210V270 9999 SCT012 28/25 Q1010 NOSIG
Liege (EBLG) 17.01.2018 20:50 UTC Zobrazit METAR
EBLG 172050Z 23013KT 9999 BKN048 03/M00 Q1009 NOSIG
Liepaja (EVLA) 17.01.2018 20:50 UTC Zobrazit METAR
EVLA 172050Z AUTO 13003KT 9999 SCT022/// BKN025/// OVC031/// M04/M06 Q0993
Lille (LFQQ) 17.01.2018 21:00 UTC Zobrazit METAR
LFQQ 172100Z AUTO 23010KT 9999 FEW030 BKN084 BKN100 06/01 Q1009 NOSIG
Lilongwe (FWLI) 04.06.2013 21:00 UTC Zobrazit METAR
FWLI 042100Z 05003KT CAVOK 14/11 Q1023 NOSIG
Lima - Callao (SPIM) 11.04.2017 16:00 UTC Zobrazit METAR
SPIM 111600Z 27005KT 200V320 8000 FEW013 SCT018 24/20 Q1013 NOSIG RMK PP000
Limnos (LGLM) 17.01.2018 20:50 UTC Zobrazit METAR
LGLM 172050Z 19017G27KT 9999 FEW020 15/09 Q0994
Linz (LOWL) 17.01.2018 20:50 UTC Zobrazit METAR
LOWL 172050Z AUTO 26021G34KT 9999 FEW009 SCT024 BKN032 01/M02 Q1008 R08/590195 NOSIG
Lisbon (LPPT) 17.01.2018 21:00 UTC Zobrazit METAR
LPPT 172100Z 33011KT CAVOK 11/07 Q1025
Liverpool (EGGP) 17.01.2018 20:50 UTC Zobrazit METAR
EGGP 172050Z 16012KT 9999 -RA FEW005 BKN015 05/04 Q0998
Ljubljana (LJLJ) 17.01.2018 21:00 UTC Zobrazit METAR
LJLJ 172100Z 29005KT 260V320 9999 FEW065 SCT100 M02/M06 Q1009 NOSIG
Lome (DXXX) 17.01.2018 21:00 UTC Zobrazit METAR
DXXX 172100Z 22009KT 9999 FEW012 28/25 Q1012 NOSIG
London (EGLL) 17.01.2018 14:50 UTC Zobrazit METAR
EGLL 171450Z AUTO 27018KT 9999 SCT044 07/M01 Q1009 NOSIG
Luanda (FNLU) 17.01.2018 21:00 UTC Zobrazit METAR
FNLU 172100Z 20006KT 9999 FEW020 27/23 Q1011 NOSIG
Lulea (ESPA) 17.01.2018 20:50 UTC Zobrazit METAR
ESPA 172050Z 14008KT 9999 -SN FEW012 SCT018 BKN026 BKN040 M07/M08 Q1004
Lusaka (FLLS) 13.01.2014 07:00 UTC Zobrazit METAR
FLLS 130700Z 36009KT CAVOK 25/20 Q1019
Luxembourg Airport (ELLX) 17.01.2018 20:50 UTC Zobrazit METAR
ELLX 172050Z 26011KT 9999 SCT008 BKN012 01/00 Q1011 NOSIG
Lyon (LFLL) 17.01.2018 21:00 UTC Zobrazit METAR
LFLL 172100Z 16007KT CAVOK 05/M02 Q1022 NOSIG
Reklama

Počasí na Váš email

Emaily jsou bez reklamy a bez spamu



Odhlásit newsletter

Reklama


Lunární kalendář

  • 24.01.
  • 31.01.
  • 07.02.
  • 15.02.



Jsme na Google Plus

Reklama
Povinné ručení



Může Vás také zajímat:


Reklama